sensor_id;sensor_type;location;lat;lon;timestamp;pressure;altitude;pressure_sealevel;temperature;humidity
44453;BME280;30155;52.164;21.236;2023-01-01T00:00:03;100366.77;;;11.86;80.19
44453;BME280;30155;52.164;21.236;2023-01-01T00:04:57;100382.01;;;11.88;79.94
44453;BME280;30155;52.164;21.236;2023-01-01T00:09:49;100369.37;;;11.86;79.83
44453;BME280;30155;52.164;21.236;2023-01-01T00:14:58;100379.41;;;11.88;79.90
44453;BME280;30155;52.164;21.236;2023-01-01T00:19:49;100381.57;;;11.88;79.81
44453;BME280;30155;52.164;21.236;2023-01-01T00:24:41;100365.05;;;11.85;79.78
44453;BME280;30155;52.164;21.236;2023-01-01T00:29:39;100366.37;;;11.88;79.79
44453;BME280;30155;52.164;21.236;2023-01-01T00:34:36;100357.66;;;11.86;79.66
44453;BME280;30155;52.164;21.236;2023-01-01T00:39:31;100365.50;;;11.89;79.73
44453;BME280;30155;52.164;21.236;2023-01-01T00:44:44;100372.95;;;11.94;79.70
44453;BME280;30155;52.164;21.236;2023-01-01T00:49:50;100371.22;;;11.96;79.36
44453;BME280;30155;52.164;21.236;2023-01-01T00:55:06;100376.45;;;11.99;79.43
44453;BME280;30155;52.164;21.236;2023-01-01T01:05:31;100379.39;;;11.86;79.34
44453;BME280;30155;52.164;21.236;2023-01-01T01:10:29;100375.89;;;11.86;79.35
44453;BME280;30155;52.164;21.236;2023-01-01T01:15:45;100379.81;;;11.84;79.35
44453;BME280;30155;52.164;21.236;2023-01-01T01:20:47;100369.83;;;11.87;79.30
44453;BME280;30155;52.164;21.236;2023-01-01T01:25:48;100377.19;;;11.86;79.15
44453;BME280;30155;52.164;21.236;2023-01-01T01:30:59;100372.84;;;11.83;79.12
44453;BME280;30155;52.164;21.236;2023-01-01T01:36:02;100376.34;;;11.87;79.09
44453;BME280;30155;52.164;21.236;2023-01-01T01:41:11;100376.80;;;11.88;78.87
44453;BME280;30155;52.164;21.236;2023-01-01T01:46:29;100370.70;;;11.89;78.93
44453;BME280;30155;52.164;21.236;2023-01-01T01:51:48;100378.57;;;11.90;78.50
44453;BME280;30155;52.164;21.236;2023-01-01T01:57:07;100385.08;;;11.90;78.66
44453;BME280;30155;52.164;21.236;2023-01-01T02:07:20;100372.86;;;11.85;78.51
44453;BME280;30155;52.164;21.236;2023-01-01T02:12:15;100380.22;;;11.83;78.45
44453;BME280;30155;52.164;21.236;2023-01-01T02:28:31;100361.42;;;11.61;78.52
44453;BME280;30155;52.164;21.236;2023-01-01T02:33:19;100366.63;;;11.59;78.57
44453;BME280;30155;52.164;21.236;2023-01-01T02:38:40;100368.34;;;11.57;78.60
44453;BME280;30155;52.164;21.236;2023-01-01T02:43:52;100374.42;;;11.58;78.57
44453;BME280;30155;52.164;21.236;2023-01-01T02:53:51;100373.96;;;11.57;78.50
44453;BME280;30155;52.164;21.236;2023-01-01T03:10:02;100364.97;;;11.72;78.18
44453;BME280;30155;52.164;21.236;2023-01-01T03:15:00;100368.92;;;11.81;77.99
44453;BME280;30155;52.164;21.236;2023-01-01T03:19:54;100360.67;;;11.82;77.81
44453;BME280;30155;52.164;21.236;2023-01-01T03:24:55;100372.47;;;11.90;77.65
44453;BME280;30155;52.164;21.236;2023-01-01T03:29:45;100369.02;;;11.91;77.49
44453;BME280;30155;52.164;21.236;2023-01-01T03:34:44;100362.95;;;11.92;77.24
44453;BME280;30155;52.164;21.236;2023-01-01T03:39:44;100356.45;;;11.93;77.20
44453;BME280;30155;52.164;21.236;2023-01-01T03:44:43;100352.13;;;12.00;76.95
44453;BME280;30155;52.164;21.236;2023-01-01T03:49:36;100365.61;;;12.01;76.86
44453;BME280;30155;52.164;21.236;2023-01-01T03:54:38;100381.69;;;12.02;76.72
44453;BME280;30155;52.164;21.236;2023-01-01T04:00:02;100392.14;;;12.08;76.66
44453;BME280;30155;52.164;21.236;2023-01-01T04:05:01;100381.74;;;12.16;76.25
44453;BME280;30155;52.164;21.236;2023-01-01T04:09:55;100378.31;;;12.25;76.17
44453;BME280;30155;52.164;21.236;2023-01-01T04:14:49;100375.75;;;12.31;75.93
44453;BME280;30155;52.164;21.236;2023-01-01T04:19:40;100381.88;;;12.42;75.78
44453;BME280;30155;52.164;21.236;2023-01-01T04:24:33;100391.44;;;12.46;75.29
44453;BME280;30155;52.164;21.236;2023-01-01T04:29:24;100393.66;;;12.54;75.15
44453;BME280;30155;52.164;21.236;2023-01-01T04:34:16;100396.31;;;12.67;74.87
44453;BME280;30155;52.164;21.236;2023-01-01T04:39:07;100399.36;;;12.71;74.41
44453;BME280;30155;52.164;21.236;2023-01-01T04:43:59;100403.72;;;12.76;74.36
44453;BME280;30155;52.164;21.236;2023-01-01T04:48:51;100406.80;;;12.85;74.11
44453;BME280;30155;52.164;21.236;2023-01-01T04:53:42;100415.51;;;12.90;73.80
44453;BME280;30155;52.164;21.236;2023-01-01T04:58:35;100415.09;;;12.95;73.36
44453;BME280;30155;52.164;21.236;2023-01-01T05:03:27;100416.84;;;13.03;73.26
44453;BME280;30155;52.164;21.236;2023-01-01T05:08:19;100409.45;;;13.01;73.05
44453;BME280;30155;52.164;21.236;2023-01-01T05:13:10;100420.73;;;12.96;73.02
44453;BME280;30155;52.164;21.236;2023-01-01T05:18:01;100422.05;;;13.00;73.00
44453;BME280;30155;52.164;21.236;2023-01-01T05:22:52;100421.18;;;12.97;72.55
44453;BME280;30155;52.164;21.236;2023-01-01T05:27:43;100408.16;;;13.10;72.40
44453;BME280;30155;52.164;21.236;2023-01-01T05:32:36;100413.39;;;13.19;72.20
44453;BME280;30155;52.164;21.236;2023-01-01T05:37:27;100416.44;;;13.17;71.60
44453;BME280;30155;52.164;21.236;2023-01-01T05:42:18;100419.06;;;13.20;71.80
44453;BME280;30155;52.164;21.236;2023-01-01T05:47:09;100411.64;;;13.21;71.64
44453;BME280;30155;52.164;21.236;2023-01-01T05:52:02;100420.34;;;13.23;70.94
44453;BME280;30155;52.164;21.236;2023-01-01T05:56:53;100431.69;;;13.25;71.25
44453;BME280;30155;52.164;21.236;2023-01-01T06:01:44;100437.75;;;13.21;71.29
44453;BME280;30155;52.164;21.236;2023-01-01T06:06:35;100446.02;;;13.13;71.22
44453;BME280;30155;52.164;21.236;2023-01-01T06:11:27;100456.86;;;13.11;70.55
44453;BME280;30155;52.164;21.236;2023-01-01T06:16:19;100462.53;;;13.12;71.11
44453;BME280;30155;52.164;21.236;2023-01-01T06:21:13;100464.27;;;13.08;71.00
44453;BME280;30155;52.164;21.236;2023-01-01T06:26:15;100481.65;;;13.03;70.86
44453;BME280;30155;52.164;21.236;2023-01-01T06:31:09;100480.77;;;12.93;70.91
44453;BME280;30155;52.164;21.236;2023-01-01T06:36:04;100482.45;;;12.85;70.96
44453;BME280;30155;52.164;21.236;2023-01-01T06:40:59;100483.28;;;12.76;70.95
44453;BME280;30155;52.164;21.236;2023-01-01T06:51:18;100501.09;;;12.66;71.05
44453;BME280;30155;52.164;21.236;2023-01-01T06:56:11;100496.67;;;12.54;70.92
44453;BME280;30155;52.164;21.236;2023-01-01T07:01:10;100497.87;;;12.39;70.92
44453;BME280;30155;52.164;21.236;2023-01-01T07:05:59;100501.31;;;12.33;71.09
44453;BME280;30155;52.164;21.236;2023-01-01T07:10:50;100496.98;;;12.32;71.09
44453;BME280;30155;52.164;21.236;2023-01-01T07:15:41;100504.34;;;12.30;71.16
44453;BME280;30155;52.164;21.236;2023-01-01T07:20:33;100514.77;;;12.30;71.16
44453;BME280;30155;52.164;21.236;2023-01-01T07:25:24;100503.44;;;12.22;71.11
44453;BME280;30155;52.164;21.236;2023-01-01T07:30:15;100503.44;;;12.22;71.12
44453;BME280;30155;52.164;21.236;2023-01-01T07:35:07;100513.02;;;12.30;70.98
44453;BME280;30155;52.164;21.236;2023-01-01T07:39:58;100519.63;;;12.44;70.81
44453;BME280;30155;52.164;21.236;2023-01-01T07:44:49;100524.52;;;12.62;70.54
44453;BME280;30155;52.164;21.236;2023-01-01T07:49:40;100537.20;;;12.76;70.29
44453;BME280;30155;52.164;21.236;2023-01-01T07:54:31;100541.63;;;12.92;69.98
44453;BME280;30155;52.164;21.236;2023-01-01T07:59:22;100551.70;;;13.07;69.61
44453;BME280;30155;52.164;21.236;2023-01-01T08:04:13;100556.97;;;13.19;68.96
44453;BME280;30155;52.164;21.236;2023-01-01T08:09:04;100563.09;;;13.30;69.02
44453;BME280;30155;52.164;21.236;2023-01-01T08:13:55;100564.05;;;13.42;68.89
44453;BME280;30155;52.164;21.236;2023-01-01T08:18:46;100568.86;;;13.47;68.59
44453;BME280;30155;52.164;21.236;2023-01-01T08:23:37;100583.66;;;13.52;68.11
44453;BME280;30155;52.164;21.236;2023-01-01T08:28:29;100575.84;;;13.62;67.74
44453;BME280;30155;52.164;21.236;2023-01-01T08:33:21;100586.33;;;13.74;67.85
44453;BME280;30155;52.164;21.236;2023-01-01T08:38:12;100585.88;;;13.82;67.04
44453;BME280;30155;52.164;21.236;2023-01-01T08:43:04;100586.78;;;14.00;67.10
44453;BME280;30155;52.164;21.236;2023-01-01T08:47:55;100593.77;;;14.08;66.99
44453;BME280;30155;52.164;21.236;2023-01-01T08:52:46;100603.34;;;14.11;66.79
44453;BME280;30155;52.164;21.236;2023-01-01T08:57:37;100589.41;;;14.21;66.05
44453;BME280;30155;52.164;21.236;2023-01-01T09:02:28;100608.59;;;14.29;65.46
44453;BME280;30155;52.164;21.236;2023-01-01T09:07:19;100617.30;;;14.41;66.21
44453;BME280;30155;52.164;21.236;2023-01-01T09:12:14;100616.02;;;14.47;65.63
44453;BME280;30155;52.164;21.236;2023-01-01T09:17:05;100611.22;;;14.62;65.36
44453;BME280;30155;52.164;21.236;2023-01-01T09:21:57;100612.06;;;14.76;65.60
44453;BME280;30155;52.164;21.236;2023-01-01T09:26:48;100616.39;;;14.90;64.66
44453;BME280;30155;52.164;21.236;2023-01-01T09:31:40;100612.84;;;15.15;64.65
44453;BME280;30155;52.164;21.236;2023-01-01T09:36:31;100619.72;;;15.41;63.95
44453;BME280;30155;52.164;21.236;2023-01-01T09:41:39;100618.74;;;15.63;63.70
44453;BME280;30155;52.164;21.236;2023-01-01T09:46:38;100620.42;;;15.80;62.90
44453;BME280;30155;52.164;21.236;2023-01-01T09:51:32;100618.52;;;16.04;62.71
44453;BME280;30155;52.164;21.236;2023-01-01T09:56:26;100607.91;;;16.20;62.64
44453;BME280;30155;52.164;21.236;2023-01-01T10:01:48;100605.97;;;16.43;61.92
44453;BME280;30155;52.164;21.236;2023-01-01T10:06:52;100610.94;;;16.70;60.65
44453;BME280;30155;52.164;21.236;2023-01-01T10:11:57;100604.22;;;16.92;60.53
44453;BME280;30155;52.164;21.236;2023-01-01T10:17:12;100614.61;;;17.01;60.61
44453;BME280;30155;52.164;21.236;2023-01-01T10:22:20;100603.89;;;17.18;60.34
44453;BME280;30155;52.164;21.236;2023-01-01T10:27:28;100601.92;;;17.37;59.01
44453;BME280;30155;52.164;21.236;2023-01-01T10:32:34;100599.66;;;17.43;59.50
44453;BME280;30155;52.164;21.236;2023-01-01T10:37:30;100591.83;;;17.70;59.09
44453;BME280;30155;52.164;21.236;2023-01-01T10:42:25;100589.87;;;17.83;57.92
44453;BME280;30155;52.164;21.236;2023-01-01T10:47:22;100589.80;;;17.59;58.36
44453;BME280;30155;52.164;21.236;2023-01-01T10:52:25;100585.15;;;17.47;57.40
44453;BME280;30155;52.164;21.236;2023-01-01T10:57:29;100580.64;;;17.56;57.23
44453;BME280;30155;52.164;21.236;2023-01-01T11:02:25;100572.84;;;17.49;57.76
44453;BME280;30155;52.164;21.236;2023-01-01T11:12:23;100561.85;;;18.12;56.56
44453;BME280;30155;52.164;21.236;2023-01-01T11:17:25;100550.83;;;18.88;56.05
44453;BME280;30155;52.164;21.236;2023-01-01T11:22:41;100555.97;;;18.96;55.06
44453;BME280;30155;52.164;21.236;2023-01-01T11:27:38;100553.22;;;19.00;54.58
44453;BME280;30155;52.164;21.236;2023-01-01T11:32:34;100563.77;;;19.62;53.62
44453;BME280;30155;52.164;21.236;2023-01-01T11:37:38;100559.19;;;20.08;53.11
44453;BME280;30155;52.164;21.236;2023-01-01T11:42:41;100547.30;;;20.26;51.45
44453;BME280;30155;52.164;21.236;2023-01-01T11:47:39;100544.94;;;20.31;51.19
44453;BME280;30155;52.164;21.236;2023-01-01T11:52:37;100549.16;;;20.38;51.23
44453;BME280;30155;52.164;21.236;2023-01-01T11:57:30;100549.42;;;20.11;51.11
44453;BME280;30155;52.164;21.236;2023-01-01T12:03:10;100544.41;;;19.83;51.72
44453;BME280;30155;52.164;21.236;2023-01-01T12:07:29;100552.36;;;19.60;51.81
44453;BME280;30155;52.164;21.236;2023-01-01T12:12:45;100550.97;;;19.24;51.84
44453;BME280;30155;52.164;21.236;2023-01-01T12:17:50;100552.73;;;18.80;52.19
44453;BME280;30155;52.164;21.236;2023-01-01T12:22:46;100543.94;;;18.33;52.44
44453;BME280;30155;52.164;21.236;2023-01-01T13:00:27;100596.33;;;17.28;53.91
44453;BME280;30155;52.164;21.236;2023-01-01T13:05:31;100595.88;;;17.29;53.96
44453;BME280;30155;52.164;21.236;2023-01-01T13:10:39;100595.06;;;17.24;54.26
44453;BME280;30155;52.164;21.236;2023-01-01T13:20:37;100599.73;;;16.99;54.18
44453;BME280;30155;52.164;21.236;2023-01-01T13:25:35;100609.90;;;16.90;54.52
44453;BME280;30155;52.164;21.236;2023-01-01T13:35:31;100600.42;;;16.73;54.67
44453;BME280;30155;52.164;21.236;2023-01-01T13:40:28;100607.47;;;16.68;54.60
44453;BME280;30155;52.164;21.236;2023-01-01T13:45:33;100597.44;;;16.65;54.47
44453;BME280;30155;52.164;21.236;2023-01-01T14:06:42;100629.83;;;16.12;55.24
44453;BME280;30155;52.164;21.236;2023-01-01T14:11:35;100640.01;;;15.94;55.41
44453;BME280;30155;52.164;21.236;2023-01-01T14:16:27;100644.48;;;15.75;55.72
44453;BME280;30155;52.164;21.236;2023-01-01T14:21:22;100653.72;;;15.56;55.99
44453;BME280;30155;52.164;21.236;2023-01-01T14:26:17;100657.70;;;15.41;56.21
44453;BME280;30155;52.164;21.236;2023-01-01T14:31:19;100673.94;;;15.19;56.58
44453;BME280;30155;52.164;21.236;2023-01-01T14:36:23;100700.59;;;15.00;56.53
44453;BME280;30155;52.164;21.236;2023-01-01T14:41:33;100700.16;;;14.96;56.98
44453;BME280;30155;52.164;21.236;2023-01-01T14:46:27;100703.23;;;14.94;57.11
44453;BME280;30155;52.164;21.236;2023-01-01T14:51:21;100718.48;;;14.90;57.46
44453;BME280;30155;52.164;21.236;2023-01-01T14:56:32;100718.92;;;14.87;57.60
44453;BME280;30155;52.164;21.236;2023-01-01T15:01:25;100721.98;;;14.87;57.62
44453;BME280;30155;52.164;21.236;2023-01-01T15:06:16;100735.94;;;14.89;57.99
44453;BME280;30155;52.164;21.236;2023-01-01T15:11:07;100752.08;;;14.85;58.06
44453;BME280;30155;52.164;21.236;2023-01-01T15:16:16;100743.38;;;14.86;58.14
44453;BME280;30155;52.164;21.236;2023-01-01T15:26:09;100705.83;;;14.86;58.40
44453;BME280;30155;52.164;21.236;2023-01-01T15:31:04;100686.22;;;14.81;58.48
44453;BME280;30155;52.164;21.236;2023-01-01T15:35:55;100707.16;;;14.66;58.67
44453;BME280;30155;52.164;21.236;2023-01-01T15:40:49;100701.89;;;14.47;58.94
44453;BME280;30155;52.164;21.236;2023-01-01T15:45:49;100708.40;;;14.32;59.17
44453;BME280;30155;52.164;21.236;2023-01-01T15:55:57;100729.70;;;14.02;59.85
44453;BME280;30155;52.164;21.236;2023-01-01T16:00:55;100743.18;;;14.00;60.06
44453;BME280;30155;52.164;21.236;2023-01-01T16:05:52;100763.66;;;13.98;60.27
44453;BME280;30155;52.164;21.236;2023-01-01T16:10:47;100758.41;;;13.90;60.50
44453;BME280;30155;52.164;21.236;2023-01-01T16:15:57;100775.79;;;13.82;60.61
44453;BME280;30155;52.164;21.236;2023-01-01T16:20:49;100781.00;;;13.76;60.83
44453;BME280;30155;52.164;21.236;2023-01-01T16:25:40;100794.00;;;13.63;60.98
44453;BME280;30155;52.164;21.236;2023-01-01T16:30:31;100784.78;;;13.51;61.42
44453;BME280;30155;52.164;21.236;2023-01-01T16:35:23;100792.93;;;13.33;61.62
44453;BME280;30155;52.164;21.236;2023-01-01T16:40:16;100798.97;;;13.29;61.99
44453;BME280;30155;52.164;21.236;2023-01-01T16:45:15;100805.06;;;13.30;62.06
44453;BME280;30155;52.164;21.236;2023-01-01T16:50:08;100813.76;;;13.27;62.23
44453;BME280;30155;52.164;21.236;2023-01-01T16:55:01;100834.13;;;13.17;62.38
44453;BME280;30155;52.164;21.236;2023-01-01T16:59:52;100851.02;;;13.11;62.64
44453;BME280;30155;52.164;21.236;2023-01-01T17:04:43;100856.20;;;13.05;62.82
44453;BME280;30155;52.164;21.236;2023-01-01T17:09:34;100848.33;;;13.02;63.00
44453;BME280;30155;52.164;21.236;2023-01-01T17:14:25;100849.61;;;12.97;63.21
44453;BME280;30155;52.164;21.236;2023-01-01T17:19:16;100855.17;;;12.89;63.33
44453;BME280;30155;52.164;21.236;2023-01-01T17:24:07;100854.31;;;12.88;63.58
44453;BME280;30155;52.164;21.236;2023-01-01T17:28:59;100847.81;;;12.93;63.69
44453;BME280;30155;52.164;21.236;2023-01-01T17:33:50;100842.17;;;12.92;63.80
44453;BME280;30155;52.164;21.236;2023-01-01T17:38:42;100839.92;;;12.85;63.85
44453;BME280;30155;52.164;21.236;2023-01-01T17:43:37;100834.26;;;12.83;63.96
44453;BME280;30155;52.164;21.236;2023-01-01T17:48:29;100829.95;;;12.86;64.09
44453;BME280;30155;52.164;21.236;2023-01-01T17:53:20;100846.42;;;12.84;64.13
44453;BME280;30155;52.164;21.236;2023-01-01T17:58:11;100850.73;;;12.77;64.28
44453;BME280;30155;52.164;21.236;2023-01-01T18:03:02;100865.05;;;12.74;64.42
44453;BME280;30155;52.164;21.236;2023-01-01T18:07:53;100873.71;;;12.73;64.42
44453;BME280;30155;52.164;21.236;2023-01-01T18:12:44;100877.58;;;12.67;64.58
44453;BME280;30155;52.164;21.236;2023-01-01T18:17:35;100876.58;;;12.57;64.71
44453;BME280;30155;52.164;21.236;2023-01-01T18:22:26;100876.96;;;12.50;64.85
44453;BME280;30155;52.164;21.236;2023-01-01T18:27:18;100881.66;;;12.43;64.95
44453;BME280;30155;52.164;21.236;2023-01-01T18:32:09;100901.59;;;12.41;65.15
44453;BME280;30155;52.164;21.236;2023-01-01T18:37:00;100895.08;;;12.41;65.20
44453;BME280;30155;52.164;21.236;2023-01-01T18:42:10;100902.53;;;12.46;65.22
44453;BME280;30155;52.164;21.236;2023-01-01T18:57:16;100919.14;;;12.53;65.35
44453;BME280;30155;52.164;21.236;2023-01-01T19:02:28;100916.46;;;12.48;65.34
44453;BME280;30155;52.164;21.236;2023-01-01T19:07:29;100927.77;;;12.47;65.44
44453;BME280;30155;52.164;21.236;2023-01-01T19:12:20;100929.39;;;12.39;65.57
44453;BME280;30155;52.164;21.236;2023-01-01T19:17:21;100940.58;;;12.29;65.70
44453;BME280;30155;52.164;21.236;2023-01-01T19:22:26;100955.70;;;12.25;65.79
44453;BME280;30155;52.164;21.236;2023-01-01T19:27:23;100961.73;;;12.20;65.89
44453;BME280;30155;52.164;21.236;2023-01-01T19:32:15;100979.50;;;12.16;65.98
44453;BME280;30155;52.164;21.236;2023-01-01T19:37:07;100983.36;;;12.13;66.10
44453;BME280;30155;52.164;21.236;2023-01-01T19:41:59;100993.27;;;12.08;66.11
44453;BME280;30155;52.164;21.236;2023-01-01T19:46:52;100997.50;;;12.01;66.29
44453;BME280;30155;52.164;21.236;2023-01-01T19:51:43;101008.74;;;11.97;66.43
44453;BME280;30155;52.164;21.236;2023-01-01T19:56:34;101003.94;;;11.95;66.53
44453;BME280;30155;52.164;21.236;2023-01-01T20:01:25;101021.71;;;11.94;66.62
44453;BME280;30155;52.164;21.236;2023-01-01T20:06:16;101023.42;;;11.92;66.70
44453;BME280;30155;52.164;21.236;2023-01-01T20:11:07;101025.03;;;11.87;66.76
44453;BME280;30155;52.164;21.236;2023-01-01T20:15:58;101018.03;;;11.82;66.88
44453;BME280;30155;52.164;21.236;2023-01-01T20:20:51;101018.81;;;11.77;66.98
44453;BME280;30155;52.164;21.236;2023-01-01T20:26:01;101020.42;;;11.70;67.14
44453;BME280;30155;52.164;21.236;2023-01-01T20:30:53;101021.51;;;11.58;67.28
44453;BME280;30155;52.164;21.236;2023-01-01T20:35:44;101033.87;;;11.46;67.50
44453;BME280;30155;52.164;21.236;2023-01-01T20:40:54;101034.14;;;11.36;67.72
44453;BME280;30155;52.164;21.236;2023-01-01T20:45:45;101029.59;;;11.26;67.89
44453;BME280;30155;52.164;21.236;2023-01-01T20:50:36;101035.86;;;11.14;68.01
44453;BME280;30155;52.164;21.236;2023-01-01T20:55:27;101036.98;;;11.04;68.28
44453;BME280;30155;52.164;21.236;2023-01-01T21:00:18;101030.27;;;10.94;68.43
44453;BME280;30155;52.164;21.236;2023-01-01T21:05:10;101036.11;;;10.83;68.53
44453;BME280;30155;52.164;21.236;2023-01-01T21:10:02;101038.48;;;10.73;68.80
44453;BME280;30155;52.164;21.236;2023-01-01T21:14:54;101042.19;;;10.63;68.86
44453;BME280;30155;52.164;21.236;2023-01-01T21:19:47;101050.27;;;10.55;68.99
44453;BME280;30155;52.164;21.236;2023-01-01T21:24:39;101059.56;;;10.45;69.23
44453;BME280;30155;52.164;21.236;2023-01-01T21:29:31;101059.00;;;10.40;69.43
44453;BME280;30155;52.164;21.236;2023-01-01T21:34:33;101061.83;;;10.32;69.57
44453;BME280;30155;52.164;21.236;2023-01-01T21:39:27;101058.16;;;10.23;69.81
44453;BME280;30155;52.164;21.236;2023-01-01T21:44:21;101060.59;;;10.17;70.06
44453;BME280;30155;52.164;21.236;2023-01-01T21:49:33;101060.07;;;10.13;70.28
44453;BME280;30155;52.164;21.236;2023-01-01T21:54:31;101067.30;;;10.07;70.39
44453;BME280;30155;52.164;21.236;2023-01-01T21:59:32;101081.77;;;9.98;70.46
44453;BME280;30155;52.164;21.236;2023-01-01T22:04:30;101078.41;;;9.84;70.59
44453;BME280;30155;52.164;21.236;2023-01-01T22:09:31;101084.20;;;9.74;70.71
44453;BME280;30155;52.164;21.236;2023-01-01T22:14:32;101076.17;;;9.65;71.01
44453;BME280;30155;52.164;21.236;2023-01-01T22:19:29;101088.53;;;9.58;70.97
44453;BME280;30155;52.164;21.236;2023-01-01T22:24:34;101087.42;;;9.49;71.17
44453;BME280;30155;52.164;21.236;2023-01-01T22:29:25;101079.44;;;9.42;71.27
44453;BME280;30155;52.164;21.236;2023-01-01T22:34:20;101079.28;;;9.35;71.47
44453;BME280;30155;52.164;21.236;2023-01-01T22:39:16;101084.87;;;9.35;71.76
44453;BME280;30155;52.164;21.236;2023-01-01T22:44:13;101082.21;;;9.32;71.87
44453;BME280;30155;52.164;21.236;2023-01-01T22:49:26;101080.98;;;9.35;72.23
44453;BME280;30155;52.164;21.236;2023-01-01T22:54:19;101076.27;;;9.36;72.19
44453;BME280;30155;52.164;21.236;2023-01-01T22:59:14;101071.52;;;9.37;72.31
44453;BME280;30155;52.164;21.236;2023-01-01T23:04:17;101079.30;;;9.37;72.48
44453;BME280;30155;52.164;21.236;2023-01-01T23:09:06;101078.48;;;9.38;72.52
44453;BME280;30155;52.164;21.236;2023-01-01T23:14:05;101084.53;;;9.39;72.61
44453;BME280;30155;52.164;21.236;2023-01-01T23:19:15;101081.41;;;9.34;72.64
44453;BME280;30155;52.164;21.236;2023-01-01T23:24:14;101079.48;;;9.27;72.79
44453;BME280;30155;52.164;21.236;2023-01-01T23:29:17;101084.45;;;9.20;72.77
44453;BME280;30155;52.164;21.236;2023-01-01T23:34:20;101082.80;;;9.07;72.90
44453;BME280;30155;52.164;21.236;2023-01-01T23:39:22;101091.05;;;8.94;72.80
44453;BME280;30155;52.164;21.236;2023-01-01T23:44:19;101091.05;;;8.80;72.95
44453;BME280;30155;52.164;21.236;2023-01-01T23:49:15;101085.97;;;8.68;73.17
44453;BME280;30155;52.164;21.236;2023-01-01T23:54:07;101084.84;;;8.60;73.38
44453;BME280;30155;52.164;21.236;2023-01-01T23:58:58;101085.86;;;8.51;73.41
